KMXF

Maxwell AFB Airport

Montgomery, Alabama, USA
METAR KMXF 161756Z AUTO 31006KT 10SM OVC023 13/09 A3018 RMK AO2 SLP223 T01300085 10130 20095 57017 $
Observed Flight Rules
Dec-16 @ 17:56 UTC (12 minutes ago) Marginal Visual Flight Rules
Wind Visibility Clouds
310° at 6 knots 10 miles
  • Overcast at 2,300' AGL
Temperatures Readings
Current 13°C / 55°F
Dewpoint 9°C / 48°F
Humidity 77%
Altimeter 30.18" Hg
Pressure 1022.3 hPa
Elevation 51
METAR KMXF 161756Z AUTO 31006KT 10SM OVC023 13/09 A3018 RMK AO2 SLP223 T01300085 10130 20095 57017 $
Observed Flight Rules
Dec-16 @ 17:56 UTC
(12 minutes ago)
MVFR
Wind Visibility
310° at 6 knots 10 miles
Clouds
  • Overcast at 2,300' AGL
Temperature Dewpoint
13°C / 55°F 9°C / 48°F
Humidity Altimeter Pressure
77% 30.18" Hg 1022.3 hPa